Nabeul, Tunisia

2:23 PM CET on July 12, 2014 (GMT +0100)
Kelibia (DTTL) Elev 98 ft | 36.85 °N, 11.08 °E | Change Station

Current weather conditions updated 23 minutes ago

Clear
Clear
84 °F
Feels Like 84 °F
N
9
Wind Variable Wind from WNW

Today is forecast to be Warmer than yesterday.

Today
High -- | Low -- °F
--% Chance of Precip.
Yesterday
High -- | Low -- °F
Precip. -- in
5:08 AM 7:36 PM
Full, 100% visible
Pressure 29.98 in
Visibility -9999.0 miles
Clouds
Heat Index 84 °F
Dew Point 61 °F
Humidity 45%
Rainfall 0.00 in
Snow Depth Not available.
UV Not available.
Pollen Not available.
Air Quality Not available.
Flu Activity Not available.
METAR DTTL 121300Z 30008KT 220V010 CAVOK 29/16 Q1015

More Conditions Fewer Conditions

Pressure 29.98 in
Visibility -9999.0 miles
Clouds
Heat Index 84 °F
Dew Point 61 °F
Humidity 45%
Rainfall 0.00 in
Snow Depth Not available.
UV Not available.
Pollen Not available.
Air Quality Not available.
Flu Activity Not available.
METAR DTTL 121300Z 30008KT 220V010 CAVOK 29/16 Q1015

More Conditions Fewer Conditions

10-Day Weather Forecast

Almanac

Astronomy

Jul. 12, 2014 Rise Set
Actual Time 5:08 AM CET 7:36 PM CET
Civil Twilight 4:38 AM CET 8:06 PM CET
Nautical Twilight 4:01 AM CET 8:43 PM CET
Astronomical Twilight 3:20 AM CET 9:23 PM CET
Moon 7:27 PM CET 5:06 AM CET
Length of Visible Light 15h 27m
Length of Day
14h 27m
Tomorrow will be 1m 3s shorter.
Full, 100% of the Moon is Illuminated
Today
Full
Jul 18
Last Quarter
Jul 26
New
Aug 3
First Quarter
Aug 10
Full

Yesterday's Extremes

Country Highs Country Lows

Community

WunderPhotos

Upload Photos

1,732,818 photos uploaded!

WunderBlogs® & News

Nearby

Snow Depth

Not available.

Earthquake Activity

City Distance Mag. Time & Date
No recent earthquake activity has been reported nearby.
Minimum magnitude displayed is 2.5.

Coastal Water Temperatures

Place Temperature
No Stations Reporting

Nearby Weather Stations

There are no personal weather stations in this area.